Weather observations for the past three days for
Winfield / Arkansas City, Strother Field
Imperial (Metric)
Date Time (cdt) Wind (mph) Vis. (mi.) Weather Sky Cond. Temperature (ºF) Relative Humidity Wind Chill (°F) Heat Index (°F) Pressure Precipitation (in)
Air Dwpt 6 hour altimeter (in) sea level (mb) 1 hr 3 hr 6 hr
Max. Min.
01 01:54 S 7 10.00 Fair CLR 75 60.1 60% 77 30 1014.3
01 00:54 S 7 10.00 Fair CLR 75.9 61 97 75.9 60% 78 30 1014.2
31 23:54 SE 6 10.00 Fair CLR 79 61 54% 80 30 1014.2
31 22:54 SE 9 10.00 Fair CLR 84 60.1 44% 84 29.98 1013.6
31 21:54 SE 7 10.00 Fair CLR 84.9 59 42% 85 29.97 1013.2
31 20:54 SE 8 10.00 Fair CLR 88 59 38% 87 29.94 1012.3
31 19:54 SE 8 10.00 Fair CLR 91.9 60.1 34% 92 29.93 1012.0
31 18:54 SE 12 G 20 10.00 Fair CLR 97 57.9 102.9 97 27% 96 29.93 1011.8
31 17:54 S 15 G 25 10.00 Fair CLR 100 57 24% 99 29.92 1011.6
31 16:54 S 14 10.00 Fair CLR 102 55.9 22% 101 29.93 1011.9
31 15:54 S 17 G 26 10.00 Fair CLR 102 57 23% 101 29.94 1012.3
31 14:54 SE 15 G 25 10.00 Fair CLR 102 55 21% 101 29.96 1012.9
31 13:54 S 10 G 20 10.00 Fair CLR 100.9 60.1 26% 102 29.97 1013.2
31 12:54 S 12 G 23 10.00 Fair CLR 100.9 61 100.9 73 27% 102 29.99 1013.9
31 11:54 SW 13 G 22 10.00 Fair CLR 97 63 33% 99 30.02 1014.8
31 10:54 S 13 10.00 Fair CLR 93.9 63 36% 95 30.02 1014.7
31 09:54 S 13 10.00 Fair CLR 88 62.1 42% 88 30.02 1014.9
31 08:54 S 9 10.00 NULL NULL 82.9 62.1 49% 84 30.02 1014.9
31 07:54 SE 5 10.00 Fair CLR 77 62.1 60% 79 30.02 1015.1
31 06:54 SE 5 10.00 Fair CLR 73.9 60.1 86 73.9 62% 30 1014.2
31 05:54 SE 6 10.00 Fair CLR 78.1 60.1 54% 79 29.99 1013.7
31 04:54 S 6 10.00 Fair CLR 79 59 50% 80 29.97 1013.0
31 03:54 S 9 10.00 Fair CLR 82 60.1 47% 82 29.94 1012.2
31 02:54 S 9 10.00 Fair CLR 82.9 60.1 46% 83 29.95 1012.3
31 01:54 S 10 10.00 Fair CLR 84 60.1 44% 84 29.95 1012.2
31 00:54 S 14 10.00 Fair CLR 84.9 60.1 99 84 43% 85 29.93 1011.8
30 23:54 S 12 10.00 Fair CLR 84 61 46% 84 29.92 1011.5
30 22:54 S 10 10.00 Fair CLR 84.9 60.1 43% 85 29.92 1011.4
30 21:54 SE 8 10.00 Fair CLR 87.1 60.1 40% 87 29.9 1011.0
30 20:54 SE 9 10.00 Fair CLR 89.1 60.1 38% 89 29.89 1010.4
30 19:54 S 7 10.00 Fair CLR 91.9 59 33% 91 29.87 1009.8
30 18:54 S 13 G 23 10.00 Fair CLR 99 57 105.1 99 25% 98 29.87 1009.7
30 17:54 S 17 G 28 10.00 Fair CLR 102 59 24% 102 29.86 1009.3
30 16:54 S 20 G 32 10.00 Fair CLR 102.9 60.1 24% 104 29.85 1009.2
30 15:54 S 20 G 30 10.00 Fair CLR 104 62.1 25% 106 29.87 1009.7
30 14:54 S 24 G 37 10.00 Fair and Breezy CLR 104 61 24% 106 29.89 1010.3
30 13:54 S 17 G 30 10.00 Fair CLR 102.9 63 27% 106 29.91 1011.0
30 12:54 S 18 G 33 10.00 Fair CLR 100.9 64 100.9 77 30% 104 29.93 1011.6
30 11:54 S 18 G 30 10.00 Fair CLR 96.1 64 35% 98 29.95 1012.5
30 10:54 S 16 G 28 10.00 Fair CLR 91.9 63 38% 93 29.96 1012.7
30 09:54 S 17 G 29 10.00 Fair CLR 88 62.1 42% 88 29.96 1012.8
30 08:54 S 18 G 26 10.00 Fair CLR 82.9 61 48% 83 29.97 1013.1
30 07:54 S 16 G 24 10.00 Fair CLR 80.1 61 52% 81 29.97 1013.3
30 06:54 S 13 10.00 Fair CLR 78.1 60.1 84 78.1 54% 79 29.96 1013.1
30 05:54 S 13 10.00 Fair CLR 80.1 59 49% 81 29.96 1012.8
30 04:54 S 13 10.00 Fair CLR 80.1 59 49% 81 29.95 1012.6
30 03:54 S 13 10.00 Fair CLR 79 60.1 52% 80 29.94 1012.3
30 02:54 S 12 10.00 Fair CLR 80.1 60.1 51% 81 29.94 1012.0
30 01:54 S 10 10.00 Fair CLR 81 60.1 49% 82 29.94 1012.2
30 00:54 S 13 10.00 Fair CLR 84 60.1 96.1 82.9 44% 84 29.95 1012.5
29 23:54 S 13 10.00 Fair CLR 82.9 61 48% 83 29.94 1012.3
29 22:54 S 13 10.00 Fair CLR 84.9 61 45% 85 29.94 1012.4
29 20:54 SE 9 10.00 Fair CLR 88 57.9 36% 87 29.92 1011.6
29 19:54 S 12 10.00 Fair CLR 91.9 57.9 32% 91 29.9 1011.0
29 18:54 S 10 10.00 Fair CLR 96.1 55.9 102.9 95 26% 94 29.9 1010.9
29 17:54 S 17 G 26 10.00 Fair CLR 100 57.9 25% 100 29.9 1011.0
29 16:54 S 21 G 30 10.00 Fair and Breezy CLR 100.9 59 25% 101 29.91 1011.3
29 15:54 S 20 G 35 10.00 Fair CLR 102 60.1 25% 103 29.94 1012.2
29 14:54 S 21 G 28 10.00 Fair and Breezy CLR 100.9 62.1 28% 103 29.96 1012.9
29 13:54 S 14 G 26 10.00 Fair CLR 99 64 32% 102 29.99 1013.8
29 12:54 S 16 10.00 Fair CLR 96.1 64 96.1 71.1 35% 98 30.02 1014.8
29 11:54 S 12 G 22 10.00 Fair CLR 91 64 41% 93 30.03 1015.6
29 10:54 S 10 10.00 Fair CLR 87.1 63 45% 88 30.05 1016.0
29 09:54 S 12 10.00 Fair CLR 82.9 62.1 49% 84 30.05 1016.3
29 08:54 S 13 10.00 Fair CLR 77 60.1 56% 79 30.06 1016.5
29 07:54 S 12 10.00 Fair CLR 75 57.9 55% 78 30.06 1016.4
29 06:54 S 9 10.00 Fair CLR 71.1 57 78.1 69.1 61% 30.05 1016.3
29 05:54 S 6 10.00 Fair CLR 70 55.9 61% 30.05 1016.4
29 04:54 SE 7 10.00 Fair CLR 73 55 53% 30.05 1016.0
29 03:54 SE 3 10.00 Fair CLR 73 54 51% 30.05 1016.1
29 02:54 SE 6 10.00 Fair CLR 73.9 54 50% 30.04 1015.9
Date Time (cdt) Wind (mph) Vis. (mi.) Weather Sky Cond. Air Dwpt Max. Min. Relative Humidity Wind Chill (°F) Heat Index (°F) altimeter (in) sea level (mb) 1 hr 3 hr 6 hr
6 hour
Temperature (ºF) Pressure Precipitation (in)